createdAt,value
2024-01-27T07:31:48.230Z,99.9
2024-01-27T07:32:50.154Z,99.9
2024-01-27T07:33:52.051Z,99.9
2024-01-27T07:34:54.114Z,99.9
2024-01-27T07:35:56.137Z,99.9
2024-01-27T07:36:57.912Z,99.9
2024-01-27T07:37:59.913Z,99.9
2024-01-27T07:39:01.987Z,99.9
2024-01-27T07:40:03.984Z,99.9
2024-01-27T07:41:05.880Z,99.9
2024-01-27T07:42:08.178Z,99.9
2024-01-27T07:43:09.860Z,99.9
2024-01-27T07:44:12.242Z,99.9
2024-01-27T07:45:14.030Z,99.9
2024-01-27T07:46:15.892Z,99.9
2024-01-27T07:47:18.129Z,99.9
2024-01-27T07:48:20.602Z,99.9
2024-01-27T07:49:22.330Z,99.9
2024-01-27T07:50:23.881Z,99.9
2024-01-27T07:51:26.085Z,99.9
2024-01-27T07:52:27.882Z,99.9
2024-01-27T07:53:29.864Z,99.9
2024-01-27T07:54:32.211Z,99.9
2024-01-27T07:55:33.895Z,99.9
2024-01-27T07:56:35.884Z,99.9
2024-01-27T07:57:38.109Z,99.9
2024-01-27T07:58:39.878Z,99.9
2024-01-27T07:59:42.158Z,99.9
2024-01-27T08:00:44.258Z,99.9
2024-01-27T08:01:45.850Z,99.9
2024-01-27T08:02:48.041Z,99.9
2024-01-27T08:03:50.916Z,99.9
2024-01-27T08:04:51.884Z,99.9
2024-01-27T08:05:54.295Z,99.9
2024-01-27T08:06:55.979Z,99.9
2024-01-27T08:07:57.870Z,99.9
2024-01-27T08:09:00.041Z,99.9
2024-01-27T08:10:01.867Z,99.9
2024-01-27T08:11:03.858Z,99.9
2024-01-27T08:12:06.272Z,99.9
2024-01-27T08:13:07.821Z,99.9
2024-01-27T08:14:09.836Z,99.9
2024-01-27T08:15:12.070Z,99.9
2024-01-27T08:16:14.110Z,99.9
2024-01-27T08:17:15.821Z,99.9
2024-01-27T08:18:18.328Z,99.9
2024-01-27T08:19:20.353Z,99.9
2024-01-27T08:20:21.852Z,99.9
2024-01-27T08:21:24.103Z,99.9
2024-01-27T08:22:25.826Z,99.9
2024-01-27T08:23:28.183Z,99.9
2024-01-27T08:24:30.266Z,99.9
2024-01-27T08:25:32.049Z,99.9
2024-01-27T08:26:33.808Z,99.9
2024-01-27T08:27:36.104Z,99.9
2024-01-27T08:28:37.807Z,99.9
2024-01-27T08:29:39.852Z,99.9
2024-01-27T08:30:42.086Z,99.9
2024-01-27T08:31:44.031Z,99.9
2024-01-27T08:32:46.165Z,99.9
2024-01-27T08:33:48.265Z,99.9
2024-01-27T08:34:50.345Z,99.9
2024-01-27T08:35:51.825Z,99.9
2024-01-27T08:36:53.914Z,99.9
2024-01-27T08:37:55.792Z,99.9
2024-01-27T08:38:57.944Z,99.9
2024-01-27T08:39:59.791Z,99.9
2024-01-27T08:41:01.998Z,99.9
2024-01-27T08:42:03.957Z,99.9
2024-01-27T08:43:05.992Z,99.9
2024-01-27T08:44:07.781Z,99.9
2024-01-27T08:45:09.933Z,99.9
2024-01-27T08:46:11.812Z,99.9
2024-01-27T08:47:13.790Z,99.9
2024-01-27T08:48:16.369Z,99.9
2024-01-27T08:49:18.063Z,99.9
2024-01-27T08:50:19.783Z,99.9
2024-01-27T08:51:22.167Z,99.9
2024-01-27T08:52:23.868Z,99.9
2024-01-27T08:53:25.933Z,99.9
2024-01-27T08:54:28.536Z,99.9
2024-01-27T08:55:30.040Z,99.9
2024-01-27T08:56:32.107Z,99.9
2024-01-27T08:57:34.441Z,99.9
2024-01-27T08:58:35.899Z,99.9
2024-01-27T08:59:37.774Z,99.9
2024-01-27T09:00:40.101Z,99.9
2024-01-27T09:01:41.812Z,99.9
2024-01-27T09:02:43.787Z,99.9
2024-01-27T09:03:45.981Z,99.9
2024-01-27T09:04:48.008Z,99.9
2024-01-27T09:05:50.022Z,99.9
2024-01-27T09:06:52.286Z,99.9
2024-01-27T09:07:53.759Z,99.9
2024-01-27T09:08:55.806Z,99.9
2024-01-27T09:09:57.897Z,99.9
2024-01-27T09:10:59.953Z,99.9
2024-01-27T09:12:02.055Z,99.9
2024-01-27T09:13:03.749Z,99.9
2024-01-27T09:14:05.756Z,99.9
2024-01-27T09:15:07.918Z,99.9
2024-01-27T09:16:09.773Z,99.9
2024-01-27T09:17:11.756Z,99.9
2024-01-27T09:18:14.178Z,99.9
2024-01-27T09:19:16.281Z,99.9
2024-01-27T09:20:18.024Z,99.9
2024-01-27T09:21:20.842Z,99.9
2024-01-27T09:22:22.435Z,99.9
2024-01-27T09:23:24.433Z,99.9
2024-01-27T09:24:27.300Z,99.9
2024-01-27T09:25:28.479Z,99.9
2024-01-27T09:26:30.444Z,99.9
2024-01-27T09:27:32.568Z,99.9
2024-01-27T09:28:34.446Z,99.9
2024-01-27T09:29:36.461Z,99.9
2024-01-27T09:30:40.548Z,99.9
2024-01-27T09:31:41.020Z,99.9
2024-01-27T09:32:49.388Z,99.9
2024-01-27T09:33:50.455Z,99.9
2024-01-27T09:34:52.548Z,99.6
2024-01-27T09:35:54.325Z,99.4
2024-01-27T09:36:56.004Z,99.2
2024-01-27T09:37:58.011Z,99
2024-01-27T09:39:00.379Z,98.8
2024-01-27T09:40:02.080Z,98.4
2024-01-27T09:41:04.018Z,98.1
2024-01-27T09:42:06.247Z,98
2024-01-27T09:43:08.009Z,97.9
2024-01-27T09:44:10.021Z,97.9
2024-01-27T09:45:12.425Z,97.7
2024-01-27T09:46:14.012Z,97.4
2024-01-27T09:47:15.999Z,96.9
2024-01-27T09:48:18.321Z,96.3
2024-01-27T09:49:20.966Z,96.1
2024-01-27T09:50:21.993Z,95.9
2024-01-27T09:51:24.502Z,95.6
2024-01-27T09:52:26.989Z,95.5
2024-01-27T09:53:28.424Z,95.3
2024-01-27T09:54:30.268Z,95.3
2024-01-27T09:55:32.533Z,95
2024-01-27T09:56:34.176Z,94.2
2024-01-27T09:57:36.904Z,94.2
2024-01-27T09:58:38.020Z,94.3
2024-01-27T09:59:39.978Z,93.6
2024-01-27T10:00:42.661Z,93.5
2024-01-27T10:01:43.985Z,92.9
2024-01-27T10:02:46.084Z,92.3
2024-01-27T10:03:48.952Z,92.5
2024-01-27T10:04:51.233Z,92.5
2024-01-27T10:05:52.317Z,93
2024-01-27T10:06:54.502Z,93
2024-01-27T10:07:58.810Z,92.6
2024-01-27T10:08:59.362Z,92.6
2024-01-27T10:10:01.129Z,91.5
2024-01-27T10:11:03.117Z,91.4
2024-01-27T10:12:05.555Z,90.1
2024-01-27T10:13:07.111Z,88.6
2024-01-27T10:14:09.101Z,87.4
2024-01-27T10:15:12.032Z,88.2
2024-01-27T10:16:13.409Z,87.4
2024-01-27T10:17:16.012Z,87.5
2024-01-27T10:18:18.731Z,87.6
2024-01-27T10:19:20.364Z,87.9
2024-01-27T10:20:22.593Z,85.3
2024-01-27T10:21:23.699Z,86
2024-01-27T10:22:25.607Z,87.7
2024-01-27T10:23:27.206Z,88.8
2024-01-27T10:24:29.602Z,89.4
2024-01-27T10:25:31.282Z,88.5
2024-01-27T10:26:33.258Z,85.2
2024-01-27T10:27:36.384Z,85
2024-01-27T10:28:37.202Z,83.5
2024-01-27T10:29:39.213Z,81.8
2024-01-27T10:30:41.959Z,79.2
2024-01-27T10:31:43.325Z,78.9
2024-01-27T10:32:45.251Z,77.5
2024-01-27T10:33:47.462Z,76.2
2024-01-27T10:34:49.631Z,74
2024-01-27T10:35:51.430Z,73.4
2024-01-27T10:36:53.198Z,70
2024-01-27T10:38:00.049Z,70.1
2024-01-27T10:39:01.425Z,68.4
2024-01-27T10:40:03.091Z,66.3
2024-01-27T10:41:05.460Z,64.2
2024-01-27T10:42:08.097Z,64.1
2024-01-27T10:43:09.367Z,62.5
2024-01-27T10:44:11.174Z,59.7
2024-01-27T10:45:13.777Z,59.4
2024-01-27T10:46:15.164Z,57.9
2024-01-27T10:47:17.253Z,57.5
2024-01-27T10:48:19.670Z,55.5
2024-01-27T10:49:22.510Z,55.7
2024-01-27T10:50:24.214Z,55.2
2024-01-27T10:51:25.714Z,54
2024-01-27T10:52:27.200Z,53
2024-01-27T10:53:29.994Z,54.3
2024-01-27T10:54:31.548Z,54.4
2024-01-27T10:55:33.050Z,54
2024-01-27T10:56:35.047Z,55
2024-01-27T10:57:37.558Z,55.1
2024-01-27T10:58:39.491Z,55.3
2024-01-27T10:59:42.404Z,54.4
2024-01-27T11:00:43.693Z,54.7
2024-01-27T11:01:45.023Z,53.4
2024-01-27T11:02:47.647Z,54.5
2024-01-27T11:03:49.934Z,54.7
2024-01-27T11:04:51.766Z,54.8
2024-01-27T11:05:54.055Z,54.5
2024-01-27T11:06:55.880Z,55
2024-01-27T11:07:57.101Z,53.7
2024-01-27T11:08:59.694Z,53.4
2024-01-27T11:10:01.798Z,52.1
2024-01-27T11:11:04.700Z,50.6
2024-01-27T11:12:05.941Z,51.7
2024-01-27T11:13:08.602Z,51.8
2024-01-27T11:14:09.771Z,51.4
2024-01-27T11:15:12.554Z,52.1
2024-01-27T11:16:13.750Z,52.2
2024-01-27T11:17:15.502Z,51.1
2024-01-27T11:18:17.547Z,50
2024-01-27T11:19:20.308Z,50.2
2024-01-27T11:20:22.679Z,49.1
2024-01-27T11:21:24.101Z,49.1
2024-01-27T11:22:25.813Z,48.8
2024-01-27T11:23:27.513Z,48.3
2024-01-27T11:24:29.967Z,47.5
2024-01-27T11:25:32.033Z,48.8
2024-01-27T11:26:35.013Z,48.7
2024-01-27T11:27:36.462Z,48.6
2024-01-27T11:28:38.404Z,48.3
2024-01-27T11:29:39.938Z,48.3
2024-01-27T11:30:41.946Z,47.3
2024-01-27T11:31:46.820Z,48.1
2024-01-27T11:32:47.881Z,48.3
2024-01-27T11:33:50.702Z,48.1
2024-01-27T11:34:52.147Z,48.2
2024-01-27T11:35:53.825Z,49.5
2024-01-27T11:36:55.427Z,49.5
2024-01-27T11:37:57.619Z,48.8
2024-01-27T11:38:59.694Z,50
2024-01-27T11:40:01.788Z,50.5
2024-01-27T11:41:04.292Z,50.9
2024-01-27T11:42:06.052Z,52.1
2024-01-27T11:43:10.858Z,51.8
2024-01-27T11:44:11.992Z,52.5
2024-01-27T11:45:13.475Z,52.3
2024-01-27T11:46:15.266Z,52.2
2024-01-27T11:47:18.208Z,51.4
2024-01-27T11:48:19.468Z,52.2
2024-01-27T11:49:21.738Z,53.9
2024-01-27T11:50:23.484Z,55
2024-01-27T11:51:25.854Z,57
2024-01-27T11:52:27.280Z,57.7
2024-01-27T11:53:29.348Z,61.2
2024-01-27T11:54:31.811Z,63.4
2024-01-27T11:55:33.319Z,64.5
2024-01-27T11:56:35.142Z,66.4
2024-01-27T11:57:37.293Z,66.9
2024-01-27T11:58:39.223Z,68.3
2024-01-27T11:59:41.221Z,68.7
2024-01-27T12:00:43.801Z,70.5
2024-01-27T12:01:46.065Z,71
2024-01-27T12:02:47.442Z,71.4
2024-01-27T12:03:49.670Z,72.1
2024-01-27T12:04:52.271Z,71.7
2024-01-27T12:05:53.730Z,71.9
2024-01-27T12:06:55.516Z,72.4
2024-01-27T12:07:57.155Z,73.2
2024-01-27T12:08:59.538Z,73.2
2024-01-27T12:10:02.490Z,73.1
2024-01-27T12:11:03.431Z,73
2024-01-27T12:12:05.696Z,73.5
2024-01-27T12:13:07.526Z,74
2024-01-27T12:14:09.672Z,74.6
2024-01-27T12:15:11.277Z,74.6
2024-01-27T12:16:13.484Z,74.7
2024-01-27T12:17:15.497Z,75.3
2024-01-27T12:18:23.193Z,74.3
2024-01-27T12:19:24.507Z,73.2
2024-01-27T12:20:26.407Z,72.7
2024-01-27T12:21:28.289Z,72.7
2024-01-27T12:22:30.043Z,74.6
2024-01-27T12:23:32.119Z,72.5
2024-01-27T12:24:34.146Z,74.1
2024-01-27T12:25:40.946Z,73.9
2024-01-27T12:26:41.587Z,74.3
2024-01-27T12:27:44.168Z,72.3
2024-01-27T12:28:45.380Z,72.3
2024-01-27T12:29:47.666Z,73.6
2024-01-27T12:30:50.019Z,73.5
2024-01-27T12:31:51.663Z,73.5
2024-01-27T12:32:54.045Z,73.2
2024-01-27T12:33:57.451Z,74
2024-01-27T12:34:59.236Z,74.3
2024-01-27T12:36:01.211Z,73.3
2024-01-27T12:37:02.404Z,73.7
2024-01-27T12:38:04.293Z,73.5
2024-01-27T12:39:06.556Z,74.4
2024-01-27T12:40:08.291Z,74.3
2024-01-27T12:41:10.581Z,73.6
2024-01-27T12:42:12.540Z,73.9
2024-01-27T12:43:14.654Z,74.3
2024-01-27T12:44:16.448Z,72.5
2024-01-27T12:45:18.501Z,73
2024-01-27T12:46:20.498Z,73.4
2024-01-27T12:47:22.422Z,72.5
2024-01-27T12:48:25.093Z,73.2
2024-01-27T12:49:26.817Z,74.1
2024-01-27T12:50:28.547Z,74.1
2024-01-27T12:51:30.550Z,73.8
2024-01-27T12:52:32.310Z,74.3
2024-01-27T12:53:34.476Z,74.2
2024-01-27T12:54:38.013Z,73.2
2024-01-27T12:55:41.198Z,72.7
2024-01-27T12:56:43.517Z,72.6
2024-01-27T12:57:45.815Z,72.9
2024-01-27T12:58:47.777Z,73.5
2024-01-27T12:59:49.424Z,74.2
2024-01-27T13:00:51.578Z,74.9
2024-01-27T13:01:53.334Z,74.2
2024-01-27T13:02:56.241Z,73.3
2024-01-27T13:03:58.032Z,73.7
2024-01-27T13:04:59.347Z,73.2
2024-01-27T13:06:01.855Z,73.5
2024-01-27T13:07:03.276Z,73.8
2024-01-27T13:08:05.831Z,73.5
2024-01-27T13:09:07.597Z,73.5
2024-01-27T13:10:09.491Z,75.1
2024-01-27T13:11:11.456Z,73.3
2024-01-27T13:12:14.163Z,73.8
2024-01-27T13:13:15.822Z,72.5
2024-01-27T13:14:17.836Z,74
2024-01-27T13:15:19.473Z,72.4
2024-01-27T13:16:21.370Z,72.5
2024-01-27T13:17:23.079Z,72.7
2024-01-27T13:18:25.603Z,73.2
2024-01-27T13:19:27.565Z,74.1
2024-01-27T13:20:29.553Z,73.8
2024-01-27T13:21:31.729Z,73.4
2024-01-27T13:22:33.357Z,73.5
2024-01-27T13:23:35.125Z,74.7
2024-01-27T13:24:37.917Z,74.6
2024-01-27T13:25:38.844Z,74
2024-01-27T13:26:41.634Z,73.9
2024-01-27T13:27:43.112Z,74.7
2024-01-27T13:28:45.201Z,74.4
2024-01-27T13:29:47.227Z,74
2024-01-27T13:30:48.992Z,75.1
2024-01-27T13:31:51.459Z,74
2024-01-27T13:32:53.693Z,73.4
2024-01-27T13:33:55.465Z,73.9
2024-01-27T13:34:58.376Z,73.7
2024-01-27T13:35:59.815Z,73.6
2024-01-27T13:37:01.525Z,75.5
2024-01-27T13:38:03.622Z,74.5
2024-01-27T13:39:05.680Z,74.4
2024-01-27T13:40:07.148Z,75.2
2024-01-27T13:41:09.170Z,74.6
2024-01-27T13:42:14.876Z,74.4
2024-01-27T13:43:15.451Z,74.8
2024-01-27T13:44:17.872Z,73.2
2024-01-27T13:45:20.182Z,73.3
2024-01-27T13:46:26.170Z,74.3
2024-01-27T13:47:27.046Z,74
2024-01-27T13:48:29.827Z,74.6
2024-01-27T13:49:31.990Z,75.6
2024-01-27T13:50:33.369Z,75.4
2024-01-27T13:51:35.316Z,74.8
2024-01-27T13:52:37.036Z,74.4
2024-01-27T13:53:48.224Z,74.1
2024-01-27T13:54:48.794Z,75.4
2024-01-27T13:55:50.756Z,75.6
2024-01-27T13:56:52.802Z,75.3
2024-01-27T13:57:54.982Z,75.4
2024-01-27T13:58:56.757Z,74.6
2024-01-27T13:59:58.929Z,74.9
2024-01-27T14:01:01.213Z,74.8
2024-01-27T14:02:02.920Z,75.7
2024-01-27T14:03:07.609Z,75.4
2024-01-27T14:04:08.579Z,76
2024-01-27T14:05:10.173Z,75.1
2024-01-27T14:06:12.397Z,76
2024-01-27T14:07:14.508Z,73.4
2024-01-27T14:08:16.157Z,74.2
2024-01-27T14:09:18.314Z,75
2024-01-27T14:10:21.802Z,74.4
2024-01-27T14:11:22.418Z,74.7
2024-01-27T14:12:24.587Z,74.6
2024-01-27T14:13:26.261Z,74.6
2024-01-27T14:14:28.245Z,74.4
2024-01-27T14:15:30.609Z,74.1
2024-01-27T14:16:32.274Z,75
2024-01-27T14:17:34.236Z,75.4
2024-01-27T14:18:36.914Z,75.9
2024-01-27T14:19:38.891Z,75
2024-01-27T14:20:40.276Z,74.4
2024-01-27T14:21:42.636Z,74.4
2024-01-27T14:22:44.228Z,73.3
2024-01-27T14:23:46.230Z,74.1
2024-01-27T14:24:48.258Z,73.8
2024-01-27T14:25:50.253Z,75.3
2024-01-27T14:26:52.241Z,75.3
2024-01-27T14:27:54.253Z,73.8
2024-01-27T14:28:56.341Z,73.1
2024-01-27T14:29:58.405Z,73.8
2024-01-27T14:31:00.457Z,74.5
2024-01-27T14:32:02.224Z,73.9
2024-01-27T14:33:04.601Z,74.8
2024-01-27T14:34:06.653Z,75.1
2024-01-27T14:35:08.348Z,74
2024-01-27T14:36:10.410Z,73.5
2024-01-27T14:37:12.229Z,74.2
2024-01-27T14:38:14.215Z,75.6
2024-01-27T14:39:16.276Z,75.2
2024-01-27T14:40:18.198Z,76
2024-01-27T14:41:20.211Z,75.9
2024-01-27T14:42:22.444Z,75.5
2024-01-27T14:43:24.229Z,75.9
2024-01-27T14:44:26.241Z,75.7
2024-01-27T14:45:28.634Z,75.7
2024-01-27T14:46:30.350Z,75.8
2024-01-27T14:47:32.420Z,76.1
2024-01-27T14:48:34.869Z,77.2
2024-01-27T14:49:36.907Z,77.6
2024-01-27T14:50:38.202Z,77.7
2024-01-27T14:51:40.334Z,77.1
2024-01-27T14:52:42.229Z,77.3
2024-01-27T14:53:44.217Z,77
2024-01-27T14:54:46.475Z,76.3
2024-01-27T14:55:48.190Z,76.6
2024-01-27T14:56:50.216Z,77.9
2024-01-27T14:57:52.225Z,76.9
2024-01-27T14:58:54.203Z,76.8
2024-01-27T14:59:56.250Z,76.3
2024-01-27T15:00:58.577Z,76.8
2024-01-27T15:02:00.571Z,76.7
2024-01-27T15:03:02.628Z,76.7
2024-01-27T15:04:04.634Z,76.2
2024-01-27T15:05:06.173Z,76.1
2024-01-27T15:06:08.492Z,76.2
2024-01-27T15:07:10.603Z,76.8
2024-01-27T15:08:12.194Z,76.5
2024-01-27T15:09:14.320Z,76.9
2024-01-27T15:10:16.709Z,77
2024-01-27T15:11:18.200Z,76.5
2024-01-27T15:12:20.504Z,76.3
2024-01-27T15:13:22.645Z,76.2
2024-01-27T15:14:24.393Z,76.2
2024-01-27T15:15:26.375Z,76.3
2024-01-27T15:16:28.187Z,76.6
2024-01-27T15:17:30.468Z,76.8
2024-01-27T15:18:32.600Z,77.4
2024-01-27T15:19:41.765Z,77.6
2024-01-27T15:20:42.412Z,78
2024-01-27T15:21:44.505Z,77.3
2024-01-27T15:22:46.385Z,77.5
2024-01-27T15:23:48.375Z,77.6
2024-01-27T15:24:50.670Z,77.7
2024-01-27T15:25:52.420Z,77.6
2024-01-27T15:27:05.532Z,77.4
2024-01-27T15:28:11.515Z,78.1
2024-01-27T15:29:13.509Z,78.5
2024-01-27T15:30:16.367Z,78.5
2024-01-27T15:31:17.541Z,78.7
2024-01-27T15:32:19.509Z,78.4
2024-01-27T15:33:22.040Z,78.7
2024-01-27T15:34:24.034Z,78.6
2024-01-27T15:35:25.682Z,78.6
2024-01-27T15:36:27.729Z,78.7
2024-01-27T15:37:29.508Z,79.1
2024-01-27T15:38:31.506Z,79
2024-01-27T15:39:33.928Z,78.9
2024-01-27T15:40:35.760Z,79.1
2024-01-27T15:41:41.429Z,79.5
2024-01-27T15:42:42.246Z,79.8
2024-01-27T15:43:43.830Z,80
2024-01-27T15:44:45.853Z,80
2024-01-27T15:45:48.067Z,80
2024-01-27T15:46:49.827Z,80.1
2024-01-27T15:47:54.884Z,80.2
2024-01-27T15:48:57.673Z,80.7
2024-01-27T15:49:59.688Z,81.1
2024-01-27T15:51:01.412Z,81.2
2024-01-27T15:52:03.239Z,81.5
2024-01-27T15:53:05.467Z,81.8
2024-01-27T15:54:07.585Z,82
2024-01-27T15:55:10.184Z,82.4
2024-01-27T15:56:11.465Z,82.7
2024-01-27T15:57:13.674Z,82.8
2024-01-27T15:58:15.478Z,82.9
2024-01-27T15:59:17.248Z,83.1
2024-01-27T16:00:19.288Z,83.1
2024-01-27T16:01:21.342Z,83.8
2024-01-27T16:02:23.212Z,83.7
2024-01-27T16:03:25.461Z,84.5
2024-01-27T16:04:27.562Z,84.5
2024-01-27T16:05:29.203Z,85.2
2024-01-27T16:06:31.650Z,85.7
2024-01-27T16:07:33.226Z,86.1
2024-01-27T16:08:35.231Z,87.1
2024-01-27T16:09:37.258Z,86.7
2024-01-27T16:10:39.191Z,86.4
2024-01-27T16:11:41.268Z,86.1
2024-01-27T16:12:43.335Z,86
2024-01-27T16:13:45.192Z,85.9
2024-01-27T16:14:47.192Z,85.7
2024-01-27T16:15:49.333Z,85.7
2024-01-27T16:16:51.184Z,86
2024-01-27T16:17:54.214Z,86.2
2024-01-27T16:18:55.752Z,86.5
2024-01-27T16:19:57.442Z,86.6
2024-01-27T16:20:59.465Z,86.4
2024-01-27T16:22:01.213Z,86.5
2024-01-27T16:26:26.844Z,86.9
2024-01-27T16:27:31.590Z,87.1
2024-01-27T16:28:33.470Z,87.2
2024-01-27T16:30:45.377Z,87.4
2024-01-27T16:31:54.098Z,87.3
2024-01-27T16:32:54.656Z,87.6
2024-01-27T16:33:56.759Z,88.2
2024-01-27T16:37:25.254Z,88.4
2024-01-27T16:39:32.502Z,88.5
2024-01-27T16:40:34.102Z,88.5
2024-01-27T16:41:36.099Z,88.7
2024-01-27T16:42:38.515Z,88.8
2024-01-27T16:43:40.065Z,88.7
2024-01-27T16:44:42.068Z,88.8
2024-01-27T16:45:44.542Z,88.7
2024-01-27T16:46:46.087Z,88.7
2024-01-27T16:47:48.309Z,88.9
2024-01-27T16:48:50.373Z,89
2024-01-27T16:49:52.209Z,89.1
2024-01-27T16:50:54.103Z,89.2
2024-01-27T16:51:56.067Z,89.3
2024-01-27T16:52:58.196Z,89.6
2024-01-27T16:54:01.169Z,89.9
2024-01-27T16:55:02.621Z,90.3
2024-01-27T16:56:04.080Z,90.3
2024-01-27T16:57:06.127Z,90.2
2024-01-27T16:58:08.053Z,90
2024-01-27T16:59:10.095Z,90
2024-01-27T17:00:12.673Z,90.1
2024-01-27T17:01:14.163Z,90.1
2024-01-27T17:02:16.048Z,90
2024-01-27T17:03:18.260Z,90
2024-01-27T17:04:20.587Z,90.1
2024-01-27T17:05:22.350Z,90.2
2024-01-27T17:06:24.366Z,90.6
2024-01-27T17:07:26.037Z,90.8
2024-01-27T17:08:28.093Z,91.1
2024-01-27T17:09:30.292Z,91.5
2024-01-27T17:10:32.259Z,91.4
2024-01-27T17:11:34.046Z,91.5
2024-01-27T17:12:36.239Z,91.6
2024-01-27T17:13:38.073Z,91.9
2024-01-27T17:14:40.036Z,91.9
2024-01-27T17:15:42.258Z,92
2024-01-27T17:16:44.195Z,91.9
2024-01-27T17:17:46.369Z,91.9
2024-01-27T17:18:48.691Z,91.8
2024-01-27T17:19:50.734Z,91.7
2024-01-27T17:20:52.022Z,91.6
2024-01-27T17:21:54.228Z,91.6
2024-01-27T17:22:56.056Z,91.6
2024-01-27T17:23:58.739Z,91.5
2024-01-27T17:25:00.960Z,91.5
2024-01-27T17:26:03.000Z,91.2
2024-01-27T17:27:09.200Z,91
2024-01-27T17:28:10.535Z,90.6
2024-01-27T17:29:12.541Z,90.3
2024-01-27T17:30:14.721Z,90.2
2024-01-27T17:31:16.345Z,90.3
2024-01-27T17:32:18.592Z,90.4
2024-01-27T17:33:21.183Z,90.7
2024-01-27T17:34:22.903Z,91.1
2024-01-27T17:35:24.460Z,91.3
2024-01-27T17:36:26.673Z,91.4
2024-01-27T17:37:31.321Z,91.5
2024-01-27T17:38:31.758Z,91.5
2024-01-27T17:39:34.110Z,91.5
2024-01-27T17:40:35.751Z,91.4
2024-01-27T17:41:38.221Z,91.5
2024-01-27T17:42:39.972Z,91.8
2024-01-27T17:43:41.970Z,92.1
2024-01-27T17:44:43.896Z,92.3
2024-01-27T17:45:46.353Z,92.4
2024-01-27T17:46:48.504Z,92.5
2024-01-27T17:47:49.976Z,92.5
2024-01-27T17:48:52.591Z,92.6
2024-01-27T17:49:54.343Z,92.7
2024-01-27T17:50:55.657Z,92.6
2024-01-27T17:51:57.979Z,92.9
2024-01-27T17:53:00.120Z,93.1
2024-01-27T17:54:01.982Z,93
2024-01-27T17:55:03.943Z,93.2
2024-01-27T17:56:05.666Z,93.3
2024-01-27T17:57:08.436Z,93.3
2024-01-27T17:58:09.980Z,93.5
2024-01-27T17:59:12.758Z,93.6
2024-01-27T18:00:14.528Z,93.7
2024-01-27T18:01:16.165Z,93.7
2024-01-27T18:02:18.393Z,93.7
2024-01-27T18:03:20.740Z,93.7
2024-01-27T18:04:23.092Z,93.7
2024-01-27T18:05:28.021Z,93.8
2024-01-27T18:06:30.972Z,93.9
2024-01-27T18:07:34.182Z,94.3
2024-01-27T18:08:35.057Z,94.6
2024-01-27T18:09:37.126Z,94.8
2024-01-27T18:10:39.991Z,94.9
2024-01-27T18:11:41.507Z,95
2024-01-27T18:12:44.723Z,94.9
2024-01-27T18:13:46.847Z,94.9
2024-01-27T18:14:49.126Z,94.9
2024-01-27T18:15:50.755Z,95
2024-01-27T18:16:52.530Z,95.1
2024-01-27T18:17:55.023Z,95.3
2024-01-27T18:18:57.058Z,95.3
2024-01-27T18:19:58.620Z,95.2
2024-01-27T18:21:00.325Z,95.2
2024-01-27T18:22:02.157Z,95.2
2024-01-27T18:23:04.629Z,95.1
2024-01-27T18:24:07.329Z,95
2024-01-27T18:25:09.522Z,94.9
2024-01-27T18:26:10.560Z,94.8
2024-01-27T18:27:12.872Z,94.7
2024-01-27T18:28:14.507Z,94.7
2024-01-27T18:29:16.204Z,94.7
2024-01-27T18:30:18.510Z,94.8
2024-01-27T18:31:20.208Z,94.9
2024-01-27T18:32:22.230Z,94.9
2024-01-27T18:33:24.764Z,95.1
2024-01-27T18:34:26.444Z,95.2
2024-01-27T18:35:28.214Z,95.2
2024-01-27T18:36:30.529Z,95.2
2024-01-27T18:37:32.665Z,95.3
2024-01-27T18:38:34.194Z,95.3
2024-01-27T18:39:36.386Z,95.4
2024-01-27T18:40:38.194Z,95.4
2024-01-27T18:41:40.495Z,95.5
2024-01-27T18:42:42.621Z,95.6
2024-01-27T18:43:44.281Z,95.9
2024-01-27T18:44:46.189Z,96
2024-01-27T18:45:48.998Z,96
2024-01-27T18:46:50.206Z,96
2024-01-27T18:47:52.567Z,96
2024-01-27T18:48:55.489Z,96
2024-01-27T18:49:57.284Z,96
2024-01-27T18:50:59.541Z,96.1
2024-01-27T18:52:01.348Z,96
2024-01-27T18:53:02.188Z,96
2024-01-27T18:54:04.572Z,96.1
2024-01-27T18:55:06.176Z,96.2
2024-01-27T18:56:08.220Z,96.2
2024-01-27T18:57:10.425Z,96.2
2024-01-27T18:58:12.448Z,96.2
2024-01-27T18:59:14.593Z,96.1
2024-01-27T19:00:16.773Z,96.2
2024-01-27T19:01:18.310Z,96.2
2024-01-27T19:02:20.182Z,96.2
2024-01-27T19:03:22.487Z,96.3
2024-01-27T19:04:24.195Z,96.3
2024-01-27T19:05:26.565Z,96.4
2024-01-27T19:06:28.636Z,96.3
2024-01-27T19:07:30.168Z,96.3
2024-01-27T19:08:32.164Z,96.3
2024-01-27T19:09:34.428Z,96.4
2024-01-27T19:10:36.184Z,96.5
2024-01-27T19:11:38.167Z,96.5
2024-01-27T19:12:40.318Z,96.6
2024-01-27T19:13:42.162Z,96.6
2024-01-27T19:14:44.195Z,96.6
2024-01-27T19:15:46.458Z,96.7
2024-01-27T19:16:48.144Z,96.8
2024-01-27T19:17:50.955Z,96.8
2024-01-27T19:18:52.872Z,96.9
2024-01-27T19:19:56.284Z,97.1
2024-01-27T19:20:56.988Z,97.1
2024-01-27T19:21:59.390Z,97.2
2024-01-27T19:23:00.957Z,97.2
2024-01-27T19:24:03.223Z,97.2
2024-01-27T19:25:04.975Z,97.3
2024-01-27T19:26:06.958Z,97.2
2024-01-27T19:27:09.091Z,97.3
2024-01-27T19:28:11.044Z,97.3
2024-01-27T19:29:12.996Z,97.3
2024-01-27T19:30:15.781Z,97.5
2024-01-27T19:31:16.984Z,97.5
2024-01-27T19:32:18.978Z,97.6
2024-01-27T19:33:21.485Z,97.6
2024-01-27T19:34:23.304Z,97.7
2024-01-27T19:35:25.220Z,97.7
2024-01-27T19:36:27.353Z,97.8
2024-01-27T19:37:29.293Z,97.7
2024-01-27T19:38:30.982Z,97.8
2024-01-27T19:39:32.973Z,98
2024-01-27T19:40:34.959Z,98.1
2024-01-27T19:41:36.946Z,98.4
2024-01-27T19:42:39.338Z,98.6
2024-01-27T19:43:41.057Z,98.5
2024-01-27T19:44:42.947Z,98.3
2024-01-27T19:45:45.165Z,98.2
2024-01-27T19:46:47.172Z,98.1
2024-01-27T19:47:49.246Z,98
2024-01-27T19:48:51.404Z,97.9
2024-01-27T19:49:53.452Z,97.7
2024-01-27T19:50:55.446Z,97.6
2024-01-27T19:51:57.514Z,97.6
2024-01-27T19:52:58.926Z,97.5
2024-01-27T19:54:01.255Z,97.3
2024-01-27T19:55:03.002Z,97.1
2024-01-27T19:56:04.943Z,97
2024-01-27T19:57:07.134Z,96.9
2024-01-27T19:58:08.954Z,96.7
2024-01-27T19:59:10.971Z,96.4
2024-01-27T20:00:13.086Z,96.2
2024-01-27T20:01:15.333Z,95.8
2024-01-27T20:02:16.933Z,95.5
2024-01-27T20:03:19.164Z,95.1
2024-01-27T20:04:21.610Z,94.9
2024-01-27T20:05:23.258Z,94.7
2024-01-27T20:06:25.399Z,94.6
2024-01-27T20:07:26.917Z,94.5
2024-01-27T20:08:28.920Z,94.4
2024-01-27T20:09:31.169Z,94.3
2024-01-27T20:10:32.956Z,94.2
2024-01-27T20:11:34.911Z,94.1
2024-01-27T20:12:37.114Z,94.1
2024-01-27T20:13:38.920Z,94.2
2024-01-27T20:14:40.960Z,94.5
2024-01-27T20:15:43.189Z,95
2024-01-27T20:16:44.933Z,95.3
2024-01-27T20:17:46.934Z,95.4
2024-01-27T20:18:49.214Z,95.4
2024-01-27T20:19:51.490Z,95.5
2024-01-27T20:20:52.923Z,95.5
2024-01-27T20:21:54.936Z,95.5
2024-01-27T20:22:56.916Z,95.4
2024-01-27T20:23:59.062Z,95.2
2024-01-27T20:25:00.939Z,94.8
2024-01-27T20:26:03.142Z,94.7
2024-01-27T20:27:05.283Z,94.5
2024-01-27T20:28:06.898Z,94.5
2024-01-27T20:29:09.295Z,94.5
2024-01-27T20:30:11.067Z,94.4
2024-01-27T20:31:12.892Z,94.4
2024-01-27T20:32:15.131Z,94.3
2024-01-27T20:33:17.278Z,94.3
2024-01-27T20:34:19.686Z,94.2
2024-01-27T20:35:21.128Z,94
2024-01-27T20:36:23.130Z,93.9
2024-01-27T20:37:25.118Z,93.7
2024-01-27T20:38:26.918Z,93.6
2024-01-27T20:39:29.230Z,93.6
2024-01-27T20:40:30.886Z,93.4
2024-01-27T20:41:32.873Z,93.4
2024-01-27T20:42:35.112Z,93.2
2024-01-27T20:43:36.909Z,93
2024-01-27T20:44:38.878Z,93
2024-01-27T20:45:41.308Z,92.7
2024-01-27T20:46:42.870Z,92.6
2024-01-27T20:47:45.076Z,92.5
2024-01-27T20:48:47.144Z,92.6
2024-01-27T20:49:49.192Z,92.7
2024-01-27T20:50:50.855Z,92.8
2024-01-27T20:51:52.883Z,92.9
2024-01-27T20:52:54.897Z,93
2024-01-27T20:53:57.059Z,93.3
2024-01-27T20:54:58.863Z,93.7
2024-01-27T20:56:01.172Z,93.7
2024-01-27T20:57:03.339Z,93.6
2024-01-27T20:58:04.880Z,93.5
2024-01-27T20:59:06.859Z,93.5
2024-01-27T21:00:08.985Z,93.4
2024-01-27T21:01:11.196Z,93.2
2024-01-27T21:02:13.196Z,93
2024-01-27T21:03:15.269Z,92.9
2024-01-27T21:04:17.685Z,92.8
2024-01-27T21:05:18.865Z,92.6
2024-01-27T21:06:20.917Z,92.6
2024-01-27T21:07:23.198Z,92.6
2024-01-27T21:08:24.865Z,92.7
2024-01-27T21:09:26.985Z,92.6
2024-01-27T21:10:28.840Z,92.6
2024-01-27T21:11:30.899Z,92.8
2024-01-27T21:12:33.154Z,92.8
2024-01-27T21:13:34.998Z,92.8
2024-01-27T21:14:36.840Z,92.8
2024-01-27T21:15:39.313Z,92.9
2024-01-27T21:16:40.878Z,92.6
2024-01-27T21:17:43.117Z,92.5
2024-01-27T21:18:45.278Z,92.4
2024-01-27T21:19:47.200Z,92.1
2024-01-27T21:20:48.862Z,91.8
2024-01-27T21:21:51.109Z,91.6
2024-01-27T21:22:52.828Z,91.4
2024-01-27T21:23:54.843Z,91.1
2024-01-27T21:24:57.023Z,90.9
2024-01-27T21:26:03.223Z,90.7
2024-01-27T21:27:04.983Z,90.5
2024-01-27T21:28:06.629Z,90.4
2024-01-27T21:29:08.622Z,90.3
2024-01-27T21:30:11.197Z,90.4
2024-01-27T21:31:12.617Z,90.4